Presque Isle, MI (49777)

2:53 PM EDT on July 27, 2016 (GMT -0400)
Lafarge Presque Isle Dock | | Change Station

Elev 585 ft 45.30 °N, 83.42 °W | Updated 10 seconds ago

Clear
Clear
70.5 °F
Feels Like 70.5 °F
N
14.1
Wind Variable Wind from NNW
Gusts 16.0 mph

Today
High -- | Low -- °F
--% Chance of Precip.
Yesterday
High -- | Low -- °F
Precip. -- in
Pressure 29.99 in
Visibility 10.0 miles
Clouds Clear
Dew Point 68 °F
Humidity 92%
Rainfall 0.00 in
Snow Depth Not available.
6:13 AM 9:06 PM
Last Quarter, 40% visible
METAR KPZQ 271835Z AUTO 34007KT 10SM CLR 23/19 A2999 RMK AO2 T02340185
Pressure 29.99 in
Visibility 10.0 miles
Clouds Clear
Dew Point 68 °F
Humidity 92%
Rainfall 0.00 in
Snow Depth Not available.
6:13 AM 9:06 PM
Last Quarter, 40% visible
METAR KPZQ 271835Z AUTO 34007KT 10SM CLR 23/19 A2999 RMK AO2 T02340185

10-Day Weather Forecast

Almanac

Astronomy

Jul. 27, 2016 Rise Set
Actual Time
Civil Twilight
Nautical Twilight
Astronomical Twilight
Moon
Length of Visible Light
Length of Day
Tomorrow will be .
, % of the Moon is Illuminated

Today's Extremes

State Highs State Lows

Community

WunderPhotos

Upload Photos

1,927,897 photos uploaded!

WunderBlog® & News

Nearby

Air Quality

  Air Quality AQ Index Pollutant
Not available.

Snow Depth

Station Depth Elevation

Earthquake Activity

City Distance Mag. Time & Date
Minimum magnitude displayed is 2.5.

Coastal Water Temperatures

Place Temperature

Stations

Nearby Weather Stations

Station Location Temp. Windchill Dew Point Humidity Wind Precip. Elev Updated Type
                   

Watches & Warnings

There are currently no watches in effect.